createdAt,value
2022-08-26T00:02:22.988Z,93.30
2022-08-26T00:04:52.260Z,93.20
2022-08-26T00:07:22.859Z,92.00
2022-08-26T00:09:54.461Z,91.20
2022-08-26T00:12:31.498Z,91.20
2022-08-26T00:15:05.150Z,91.10
2022-08-26T00:17:34.130Z,91.40
2022-08-26T00:20:02.718Z,91.60
2022-08-26T00:22:38.903Z,91.40
2022-08-26T00:25:10.049Z,91.00
2022-08-26T00:27:38.474Z,90.40
2022-08-26T00:30:10.884Z,90.00
2022-08-26T00:32:39.671Z,90.10
2022-08-26T00:35:13.578Z,90.00
2022-08-26T00:37:45.172Z,90.00
2022-08-26T00:40:18.772Z,90.30
2022-08-26T00:42:48.784Z,90.80
2022-08-26T00:45:17.753Z,91.50
2022-08-26T00:47:49.586Z,91.80
2022-08-26T00:50:24.848Z,92.80
2022-08-26T00:52:59.483Z,92.70
2022-08-26T00:55:34.638Z,93.80
2022-08-26T00:58:08.292Z,94.00
2022-08-26T01:00:41.445Z,94.90
2022-08-26T01:03:26.995Z,95.20
2022-08-26T01:06:00.908Z,95.70
2022-08-26T01:08:31.981Z,95.90
2022-08-26T01:11:02.529Z,96.40
2022-08-26T01:13:33.704Z,96.90
2022-08-26T01:16:05.666Z,97.10
2022-08-26T01:18:36.029Z,97.30
2022-08-26T01:21:14.915Z,97.50
2022-08-26T01:23:51.399Z,97.80
2022-08-26T01:26:35.507Z,97.90
2022-08-26T01:29:07.499Z,98.00
2022-08-26T01:31:42.129Z,98.20
2022-08-26T01:34:19.701Z,98.40
2022-08-26T01:36:51.507Z,98.60
2022-08-26T01:39:22.615Z,99.00
2022-08-26T01:41:55.136Z,99.20
2022-08-26T01:44:28.343Z,99.40
2022-08-26T01:47:00.144Z,99.60
2022-08-26T01:49:32.711Z,99.90
2022-08-26T01:52:06.047Z,99.90
2022-08-26T01:54:38.176Z,99.90
2022-08-26T01:57:08.117Z,99.90
2022-08-26T01:59:37.448Z,99.90
2022-08-26T02:02:06.392Z,99.90
2022-08-26T02:04:38.162Z,99.90
2022-08-26T02:07:10.627Z,99.90
2022-08-26T02:09:48.557Z,99.90
2022-08-26T02:12:20.988Z,99.90
2022-08-26T02:14:53.890Z,99.90
2022-08-26T02:17:27.531Z,99.90
2022-08-26T02:19:57.255Z,99.90
2022-08-26T02:22:26.886Z,99.90
2022-08-26T02:25:00.109Z,99.90
2022-08-26T02:27:32.357Z,99.90
2022-08-26T02:30:09.221Z,99.90
2022-08-26T02:32:40.230Z,99.90
2022-08-26T02:35:13.959Z,99.90
2022-08-26T02:37:54.251Z,99.90
2022-08-26T02:40:28.493Z,99.90
2022-08-26T02:42:57.161Z,99.90
2022-08-26T02:45:26.459Z,99.90
2022-08-26T02:47:56.977Z,99.90
2022-08-26T02:50:26.191Z,99.90
2022-08-26T02:52:56.015Z,99.90
2022-08-26T02:55:26.747Z,99.90
2022-08-26T02:57:55.444Z,99.90
2022-08-26T03:00:24.992Z,99.90
2022-08-26T03:02:55.472Z,99.90
2022-08-26T03:05:25.367Z,99.90
2022-08-26T03:07:54.433Z,99.90
2022-08-26T03:10:24.335Z,99.90
2022-08-26T03:18:42.324Z,99.90
2022-08-26T03:21:14.020Z,99.90
2022-08-26T03:23:44.120Z,99.90
2022-08-26T03:26:14.510Z,99.90
2022-08-26T03:28:57.087Z,99.90
2022-08-26T03:31:27.637Z,99.90
2022-08-26T03:33:59.722Z,99.90
2022-08-26T03:36:32.249Z,99.90
2022-08-26T03:39:04.065Z,99.90
2022-08-26T03:41:33.284Z,99.90
2022-08-26T03:44:02.919Z,99.90
2022-08-26T03:46:35.511Z,99.90
2022-08-26T03:49:07.188Z,99.90
2022-08-26T03:51:38.793Z,99.90
2022-08-26T03:54:09.107Z,99.90
2022-08-26T03:56:38.787Z,99.90
2022-08-26T03:59:09.244Z,99.90
2022-08-26T04:01:52.383Z,99.90
2022-08-26T04:04:24.428Z,99.90
2022-08-26T04:06:58.391Z,99.90
2022-08-26T04:09:28.091Z,99.90
2022-08-26T04:11:57.543Z,99.90
2022-08-26T04:14:29.220Z,99.90
2022-08-26T04:16:58.613Z,99.90
2022-08-26T04:19:28.781Z,99.90
2022-08-26T04:21:57.732Z,99.90
2022-08-26T04:24:29.418Z,99.90
2022-08-26T04:26:58.355Z,99.90
2022-08-26T04:29:28.755Z,99.90
2022-08-26T04:31:57.670Z,99.90
2022-08-26T04:34:29.558Z,99.90
2022-08-26T04:37:01.752Z,99.90
2022-08-26T04:39:30.669Z,99.90
2022-08-26T04:42:01.733Z,99.90
2022-08-26T04:44:32.425Z,99.90
2022-08-26T04:47:01.515Z,99.90
2022-08-26T04:49:35.126Z,99.90
2022-08-26T04:52:05.701Z,99.90
2022-08-26T04:54:34.613Z,99.90
2022-08-26T04:57:03.851Z,99.90
2022-08-26T04:59:38.465Z,99.90
2022-08-26T05:02:08.068Z,99.90
2022-08-26T05:04:40.822Z,99.90
2022-08-26T05:07:09.746Z,99.90
2022-08-26T05:09:38.431Z,99.90
2022-08-26T05:12:13.104Z,99.90
2022-08-26T05:14:42.381Z,99.90
2022-08-26T05:17:15.101Z,99.90
2022-08-26T05:19:45.922Z,99.90
2022-08-26T05:22:14.745Z,99.90
2022-08-26T05:24:43.564Z,99.90
2022-08-26T05:27:13.586Z,99.90
2022-08-26T05:29:43.129Z,99.90
2022-08-26T05:32:13.224Z,99.90
2022-08-26T05:34:42.885Z,99.90
2022-08-26T05:37:13.778Z,99.90
2022-08-26T05:39:51.401Z,99.90
2022-08-26T05:42:20.674Z,99.90
2022-08-26T05:44:56.049Z,99.90
2022-08-26T05:47:25.244Z,99.90
2022-08-26T05:49:55.627Z,99.90
2022-08-26T05:52:26.135Z,99.90
2022-08-26T05:54:55.795Z,99.90
2022-08-26T05:57:24.460Z,99.90
2022-08-26T05:59:53.400Z,99.90
2022-08-26T06:02:22.301Z,99.90
2022-08-26T06:04:51.950Z,99.90
2022-08-26T06:07:41.590Z,99.90
2022-08-26T06:10:31.477Z,99.90
2022-08-26T06:13:04.543Z,99.90
2022-08-26T06:15:43.539Z,99.90
2022-08-26T06:18:14.729Z,99.90
2022-08-26T06:20:57.654Z,99.90
2022-08-26T06:23:46.196Z,99.90
2022-08-26T06:26:23.777Z,99.90
2022-08-26T06:28:53.622Z,99.90
2022-08-26T06:31:23.173Z,99.90
2022-08-26T06:33:53.204Z,99.90
2022-08-26T06:36:25.587Z,99.90
2022-08-26T06:38:55.982Z,99.90
2022-08-26T06:41:26.374Z,99.90
2022-08-26T06:43:55.143Z,99.90
2022-08-26T06:46:24.158Z,99.70
2022-08-26T06:48:55.455Z,99.60
2022-08-26T06:51:27.222Z,99.30
2022-08-26T06:53:59.716Z,99.20
2022-08-26T06:56:35.605Z,99.40
2022-08-26T06:59:07.197Z,99.30
2022-08-26T07:01:43.000Z,99.10
2022-08-26T07:04:20.291Z,98.90
2022-08-26T07:06:54.902Z,98.60
2022-08-26T07:09:26.499Z,98.80
2022-08-26T07:11:57.875Z,98.50
2022-08-26T07:14:27.386Z,98.60
2022-08-26T07:16:56.641Z,98.70
2022-08-26T07:19:29.860Z,98.60
2022-08-26T07:22:02.244Z,98.70
2022-08-26T07:24:33.477Z,98.70
2022-08-26T07:27:07.441Z,99.10
2022-08-26T07:29:39.918Z,99.20
2022-08-26T07:32:09.942Z,98.80
2022-08-26T07:34:39.132Z,98.80
2022-08-26T07:37:08.808Z,99.30
2022-08-26T07:39:37.893Z,99.00
2022-08-26T07:42:15.073Z,99.20
2022-08-26T07:44:45.001Z,98.90
2022-08-26T07:47:25.587Z,98.60
2022-08-26T07:49:56.836Z,98.20
2022-08-26T07:52:27.196Z,98.10
2022-08-26T07:55:02.304Z,98.20
2022-08-26T07:57:39.993Z,98.50
2022-08-26T08:00:13.927Z,98.40
2022-08-26T08:02:45.179Z,98.30
2022-08-26T08:05:17.853Z,98.00
2022-08-26T08:07:46.814Z,97.80
2022-08-26T08:10:19.097Z,97.60
2022-08-26T08:12:52.877Z,98.30
2022-08-26T08:15:25.411Z,98.40
2022-08-26T08:17:55.624Z,97.80
2022-08-26T08:20:33.249Z,97.70
2022-08-26T08:23:07.091Z,97.50
2022-08-26T08:25:37.100Z,97.50
2022-08-26T08:28:07.893Z,97.90
2022-08-26T08:30:41.552Z,98.10
2022-08-26T08:33:11.349Z,97.60
2022-08-26T08:35:42.624Z,97.10
2022-08-26T08:38:11.978Z,97.60
2022-08-26T08:40:42.897Z,97.60
2022-08-26T08:43:15.254Z,97.80
2022-08-26T08:45:49.580Z,98.00
2022-08-26T08:48:27.962Z,97.80
2022-08-26T08:51:05.071Z,97.70
2022-08-26T08:53:39.545Z,97.70
2022-08-26T08:56:13.885Z,97.80
2022-08-26T08:58:56.788Z,97.70
2022-08-26T09:01:39.889Z,97.40
2022-08-26T09:04:21.412Z,97.30
2022-08-26T09:06:54.187Z,97.20
2022-08-26T09:09:25.666Z,97.10
2022-08-26T09:11:58.871Z,96.90
2022-08-26T09:14:29.329Z,96.80
2022-08-26T09:17:04.286Z,96.40
2022-08-26T09:19:41.520Z,95.80
2022-08-26T09:22:10.259Z,95.60
2022-08-26T09:24:48.395Z,95.00
2022-08-26T09:27:38.057Z,94.70
2022-08-26T09:30:11.473Z,94.60
2022-08-26T09:32:41.363Z,94.40
2022-08-26T09:35:12.265Z,94.40
2022-08-26T09:37:43.675Z,94.10
2022-08-26T09:40:22.658Z,94.20
2022-08-26T09:43:09.311Z,93.40
2022-08-26T09:45:40.562Z,92.90
2022-08-26T09:48:32.328Z,93.10
2022-08-26T09:51:08.200Z,93.20
2022-08-26T09:53:50.816Z,92.70
2022-08-26T09:56:27.723Z,92.30
2022-08-26T09:58:58.591Z,91.70
2022-08-26T10:01:38.220Z,91.90
2022-08-26T10:04:14.121Z,92.30
2022-08-26T10:06:55.583Z,93.10
2022-08-26T10:09:28.128Z,94.10
2022-08-26T10:12:01.257Z,94.30
2022-08-26T10:14:34.014Z,94.60
2022-08-26T10:17:13.047Z,94.20
2022-08-26T10:19:56.568Z,93.90
2022-08-26T10:22:31.111Z,93.90
2022-08-26T10:25:04.417Z,93.70
2022-08-26T10:27:51.000Z,93.40
2022-08-26T10:30:23.689Z,93.40
2022-08-26T10:32:58.057Z,93.50
2022-08-26T10:35:27.342Z,93.30
2022-08-26T10:37:59.509Z,93.50
2022-08-26T10:40:32.052Z,93.40
2022-08-26T10:43:10.898Z,93.20
2022-08-26T10:45:43.936Z,93.00
2022-08-26T10:48:19.028Z,92.70
2022-08-26T10:50:49.963Z,91.80
2022-08-26T10:53:26.502Z,91.20
2022-08-26T10:56:02.803Z,91.40
2022-08-26T10:58:52.505Z,90.30
2022-08-26T11:01:46.948Z,89.80
2022-08-26T11:04:37.668Z,88.90
2022-08-26T11:07:39.442Z,88.80
2022-08-26T11:10:12.769Z,88.40
2022-08-26T11:12:53.870Z,88.10
2022-08-26T11:16:09.631Z,87.80
2022-08-26T11:18:51.404Z,88.00
2022-08-26T11:22:05.319Z,88.00
2022-08-26T11:25:00.945Z,88.00
2022-08-26T11:28:03.821Z,88.10
2022-08-26T11:30:57.820Z,87.20
2022-08-26T11:34:00.810Z,87.70
2022-08-26T11:37:00.082Z,88.20
2022-08-26T11:39:33.392Z,87.70
2022-08-26T11:42:20.258Z,87.70
2022-08-26T11:44:50.103Z,87.20
2022-08-26T11:47:28.778Z,86.70
2022-08-26T11:50:10.218Z,86.00
2022-08-26T11:52:41.299Z,85.10
2022-08-26T11:55:12.477Z,84.80
2022-08-26T11:57:46.104Z,85.00
2022-08-26T12:00:22.704Z,84.80
2022-08-26T12:02:53.640Z,84.30
2022-08-26T12:05:29.584Z,84.30
2022-08-26T12:08:08.766Z,85.10
2022-08-26T12:10:39.040Z,85.70
2022-08-26T12:13:08.961Z,86.20
2022-08-26T12:15:37.740Z,85.60
2022-08-26T12:18:20.790Z,85.90
2022-08-26T12:20:59.506Z,85.60
2022-08-26T12:23:43.357Z,86.20
2022-08-26T12:26:20.448Z,85.60
2022-08-26T12:28:53.493Z,84.20
2022-08-26T12:31:25.257Z,84.60
2022-08-26T12:33:54.771Z,84.10
2022-08-26T12:36:31.723Z,84.00
2022-08-26T12:39:10.945Z,83.80
2022-08-26T12:41:50.136Z,84.20
2022-08-26T12:44:37.130Z,84.30
2022-08-26T12:47:10.025Z,84.20
2022-08-26T12:49:41.018Z,83.40
2022-08-26T12:52:30.318Z,82.60
2022-08-26T12:55:03.507Z,83.00
2022-08-26T12:57:36.575Z,84.20
2022-08-26T13:00:26.271Z,84.50
2022-08-26T13:02:58.907Z,84.80
2022-08-26T13:05:33.205Z,84.30
2022-08-26T13:08:16.997Z,84.30
2022-08-26T13:10:49.354Z,84.60
2022-08-26T13:13:18.358Z,85.10
2022-08-26T13:15:47.226Z,85.50
2022-08-26T13:18:16.890Z,86.50
2022-08-26T13:20:45.684Z,87.20
2022-08-26T13:23:14.873Z,87.30
2022-08-26T13:25:43.967Z,87.40
2022-08-26T13:28:14.323Z,87.30
2022-08-26T13:30:46.094Z,87.50
2022-08-26T13:33:16.967Z,87.60
2022-08-26T13:35:47.070Z,87.40
2022-08-26T13:38:29.023Z,87.40
2022-08-26T13:41:04.423Z,87.20
2022-08-26T13:43:34.604Z,87.40
2022-08-26T13:46:03.552Z,87.40
2022-08-26T13:48:34.266Z,87.90
2022-08-26T13:51:03.786Z,88.30
2022-08-26T13:53:37.446Z,88.00
2022-08-26T13:56:10.838Z,88.00
2022-08-26T13:58:41.395Z,87.90
2022-08-26T14:01:10.518Z,87.90
2022-08-26T14:03:39.975Z,87.90
2022-08-26T14:06:08.848Z,88.00
2022-08-26T14:08:38.033Z,88.40
2022-08-26T14:11:07.041Z,88.70
2022-08-26T14:13:36.486Z,89.20
2022-08-26T14:16:11.328Z,90.00
2022-08-26T14:18:47.288Z,90.30
2022-08-26T14:21:18.785Z,91.10
2022-08-26T14:23:47.395Z,91.70
2022-08-26T14:26:28.549Z,92.10
2022-08-26T14:28:58.245Z,92.50
2022-08-26T14:31:31.573Z,92.60
2022-08-26T14:34:09.615Z,93.00
2022-08-26T14:36:38.213Z,93.00
2022-08-26T14:39:10.132Z,93.10
2022-08-26T14:41:42.743Z,93.10
2022-08-26T14:44:14.798Z,92.80
2022-08-26T14:46:47.428Z,92.80
2022-08-26T14:49:19.283Z,93.00
2022-08-26T14:51:48.095Z,93.00
2022-08-26T14:54:18.269Z,92.80
2022-08-26T14:56:51.399Z,92.80
2022-08-26T14:59:24.060Z,91.90
2022-08-26T15:01:55.907Z,90.90
2022-08-26T15:04:25.873Z,90.20
2022-08-26T15:06:57.015Z,89.50
2022-08-26T15:09:26.391Z,89.90
2022-08-26T15:11:55.619Z,90.30
2022-08-26T15:14:26.013Z,90.60
2022-08-26T15:17:35.753Z,90.70
2022-08-26T15:22:58.225Z,90.70
2022-08-26T15:25:31.289Z,90.90
2022-08-26T15:27:59.848Z,91.30
2022-08-26T15:30:28.676Z,91.00
2022-08-26T15:32:58.974Z,90.60
2022-08-26T15:35:27.857Z,90.90
2022-08-26T15:38:01.621Z,90.60
2022-08-26T15:40:30.849Z,90.40
2022-08-26T15:43:17.847Z,90.80
2022-08-26T15:45:47.334Z,91.40
2022-08-26T15:48:17.797Z,91.60
2022-08-26T15:50:52.867Z,91.40
2022-08-26T15:53:22.709Z,91.50
2022-08-26T15:55:54.164Z,91.60
2022-08-26T15:58:24.371Z,91.50
2022-08-26T16:01:02.890Z,91.20
2022-08-26T16:03:33.441Z,91.00
2022-08-26T16:06:02.901Z,91.30
2022-08-26T16:08:36.470Z,91.60
2022-08-26T16:11:06.074Z,91.70
2022-08-26T16:13:39.944Z,91.60
2022-08-26T16:16:10.269Z,91.80
2022-08-26T16:18:40.787Z,91.50
2022-08-26T16:21:13.296Z,91.20
2022-08-26T16:23:44.296Z,91.10
2022-08-26T16:26:16.492Z,91.10
2022-08-26T16:28:45.344Z,91.20
2022-08-26T16:31:19.388Z,91.10
2022-08-26T16:33:49.625Z,90.90
2022-08-26T16:36:18.644Z,91.20
2022-08-26T16:38:50.207Z,91.20
2022-08-26T16:41:19.413Z,90.90
2022-08-26T16:43:48.308Z,90.90
2022-08-26T16:46:17.500Z,91.30
2022-08-26T16:48:46.853Z,91.30
2022-08-26T16:51:19.139Z,91.50
2022-08-26T16:53:48.009Z,91.60
2022-08-26T16:56:18.099Z,92.10
2022-08-26T16:58:48.277Z,92.00
2022-08-26T17:01:17.398Z,91.50
2022-08-26T17:03:49.226Z,91.80
2022-08-26T17:06:19.814Z,91.70
2022-08-26T17:08:48.702Z,91.90
2022-08-26T17:11:17.527Z,92.10
2022-08-26T17:13:46.191Z,92.10
2022-08-26T17:16:15.193Z,92.10
2022-08-26T17:18:44.115Z,92.10
2022-08-26T17:21:15.176Z,92.20
2022-08-26T17:23:46.032Z,92.30
2022-08-26T17:26:14.742Z,92.60
2022-08-26T17:28:43.463Z,92.90
2022-08-26T17:31:14.306Z,93.20
2022-08-26T17:33:42.991Z,93.50
2022-08-26T17:36:11.958Z,93.50
2022-08-26T17:38:41.252Z,93.50
2022-08-26T17:41:13.036Z,94.00
2022-08-26T17:43:41.921Z,94.20
2022-08-26T17:46:13.033Z,94.10
2022-08-26T17:48:42.448Z,94.00
2022-08-26T17:51:12.674Z,94.10
2022-08-26T17:53:41.401Z,94.20
2022-08-26T17:56:14.877Z,94.20
2022-08-26T17:58:51.494Z,94.40
2022-08-26T18:01:21.140Z,94.60
2022-08-26T18:03:50.255Z,94.60
2022-08-26T18:06:19.408Z,94.60
2022-08-26T18:08:48.360Z,94.40
2022-08-26T18:11:20.480Z,94.30
2022-08-26T18:13:49.139Z,94.00
2022-08-26T18:16:19.879Z,94.00
2022-08-26T18:18:52.013Z,94.00
2022-08-26T18:21:23.755Z,93.80
2022-08-26T18:23:54.326Z,93.80
2022-08-26T18:26:29.050Z,93.80
2022-08-26T18:28:57.831Z,93.90
2022-08-26T18:31:26.997Z,94.20
2022-08-26T18:33:55.712Z,94.10
2022-08-26T18:36:26.472Z,94.10
2022-08-26T18:38:56.042Z,94.20
2022-08-26T18:41:28.802Z,94.30
2022-08-26T18:43:59.234Z,94.50
2022-08-26T18:46:29.732Z,94.60
2022-08-26T18:49:02.462Z,94.70
2022-08-26T18:51:33.714Z,94.50
2022-08-26T18:54:09.621Z,94.60
2022-08-26T18:56:40.645Z,94.60
2022-08-26T18:59:09.966Z,94.40
2022-08-26T19:01:42.429Z,94.40
2022-08-26T19:04:15.613Z,94.40
2022-08-26T19:06:46.637Z,94.60
2022-08-26T19:09:17.323Z,94.60
2022-08-26T19:11:49.770Z,94.60
2022-08-26T19:14:22.276Z,94.60
2022-08-26T19:16:52.814Z,94.80
2022-08-26T19:19:25.293Z,94.70
2022-08-26T19:21:57.942Z,94.80
2022-08-26T19:24:28.150Z,94.70
2022-08-26T19:27:00.765Z,94.70
2022-08-26T19:29:32.044Z,95.10
2022-08-26T19:32:01.681Z,95.40
2022-08-26T19:34:30.584Z,95.70
2022-08-26T19:36:59.572Z,96.20
2022-08-26T19:39:28.615Z,96.50
2022-08-26T19:42:00.456Z,96.60
2022-08-26T19:44:46.508Z,96.80
2022-08-26T19:47:15.323Z,96.90
2022-08-26T19:49:43.956Z,96.70
2022-08-26T19:52:13.302Z,96.80
2022-08-26T19:54:42.265Z,97.10
2022-08-26T19:57:12.939Z,97.10
2022-08-26T19:59:42.322Z,96.70
2022-08-26T20:02:11.500Z,96.50
2022-08-26T20:04:41.876Z,96.50
2022-08-26T20:07:12.895Z,96.60
2022-08-26T20:09:44.053Z,96.50
2022-08-26T20:12:15.494Z,96.60
2022-08-26T20:14:44.340Z,96.20
2022-08-26T20:17:13.626Z,96.30
2022-08-26T20:19:59.695Z,96.40
2022-08-26T20:22:28.338Z,96.30
2022-08-26T20:24:57.066Z,96.40
2022-08-26T20:27:37.711Z,96.30
2022-08-26T20:30:09.183Z,95.80
2022-08-26T20:32:38.350Z,96.00
2022-08-26T20:35:09.499Z,95.90
2022-08-26T20:37:39.243Z,96.20
2022-08-26T20:40:09.523Z,96.20
2022-08-26T20:42:39.863Z,96.30
2022-08-26T20:45:10.122Z,96.40
2022-08-26T20:47:39.063Z,96.50
2022-08-26T20:50:09.505Z,96.40
2022-08-26T20:52:38.194Z,96.00
2022-08-26T20:55:07.790Z,95.70
2022-08-26T20:57:37.577Z,95.70
2022-08-26T21:00:09.849Z,95.10
2022-08-26T21:02:38.460Z,95.20
2022-08-26T21:05:08.075Z,95.30
2022-08-26T21:07:36.698Z,95.30
2022-08-26T21:10:05.425Z,95.20
2022-08-26T21:12:34.017Z,95.20
2022-08-26T21:15:02.587Z,95.90
2022-08-26T21:17:32.924Z,95.90
2022-08-26T21:20:01.625Z,95.80
2022-08-26T21:22:31.197Z,95.80
2022-08-26T21:25:00.165Z,96.10
2022-08-26T21:27:28.821Z,96.30
2022-08-26T21:29:57.553Z,96.00
2022-08-26T21:32:26.161Z,96.20
2022-08-26T21:34:58.673Z,96.60
2022-08-26T21:37:29.496Z,96.20
2022-08-26T21:39:59.890Z,96.30
2022-08-26T21:42:29.626Z,96.10
2022-08-26T21:44:58.529Z,96.40
2022-08-26T21:47:27.747Z,96.70
2022-08-26T21:49:58.064Z,96.90
2022-08-26T21:52:26.888Z,97.00
2022-08-26T21:54:59.836Z,97.20
2022-08-26T21:57:29.941Z,97.70
2022-08-26T21:59:59.357Z,98.70
2022-08-26T22:02:28.314Z,99.10
2022-08-26T22:04:58.469Z,99.30
2022-08-26T22:07:27.147Z,99.40
2022-08-26T22:09:56.491Z,99.60
2022-08-26T22:12:28.107Z,99.70
2022-08-26T22:14:56.773Z,99.40
2022-08-26T22:17:26.610Z,99.20
2022-08-26T22:19:55.405Z,99.40
2022-08-26T22:22:28.726Z,99.50
2022-08-26T22:24:57.463Z,99.50
2022-08-26T22:27:26.520Z,99.20
2022-08-26T22:29:55.447Z,99.10
2022-08-26T22:32:24.064Z,99.20
2022-08-26T22:34:52.725Z,99.40
2022-08-26T22:37:21.619Z,99.60
2022-08-26T22:39:52.708Z,99.70
2022-08-26T22:42:21.659Z,99.90
2022-08-26T22:44:50.324Z,99.90
2022-08-26T22:47:19.109Z,99.90
2022-08-26T22:49:48.328Z,99.90
2022-08-26T22:52:17.314Z,99.90
2022-08-26T22:54:46.831Z,99.90
2022-08-26T22:57:17.231Z,99.90
2022-08-26T22:59:46.682Z,99.90
2022-08-26T23:02:15.862Z,99.90
2022-08-26T23:04:44.347Z,99.90
2022-08-26T23:07:14.179Z,99.90
2022-08-26T23:09:43.304Z,99.90
2022-08-26T23:12:12.651Z,99.90
2022-08-26T23:14:44.395Z,99.90
2022-08-26T23:17:14.506Z,99.90
2022-08-26T23:19:43.522Z,99.90
2022-08-26T23:22:12.647Z,99.90
2022-08-26T23:24:41.443Z,99.90
2022-08-26T23:27:10.405Z,99.90
2022-08-26T23:29:39.897Z,99.90
2022-08-26T23:32:10.354Z,99.90
2022-08-26T23:34:56.101Z,99.90
2022-08-26T23:37:24.788Z,99.90
2022-08-26T23:39:55.685Z,99.90
2022-08-26T23:42:24.341Z,99.90
2022-08-26T23:44:56.870Z,99.90
2022-08-26T23:47:27.621Z,99.90
2022-08-26T23:49:56.327Z,99.90
2022-08-26T23:52:47.814Z,99.90
2022-08-26T23:55:16.888Z,99.90
2022-08-26T23:57:45.506Z,99.90
